createdAt,value
2018-05-07T00:00:36.409Z,62.00
2018-05-07T00:03:04.840Z,61.77
2018-05-07T00:05:33.267Z,61.59
2018-05-07T00:08:01.782Z,61.74
2018-05-07T00:10:30.212Z,61.87
2018-05-07T00:12:58.632Z,61.61
2018-05-07T00:15:27.096Z,61.75
2018-05-07T00:17:55.508Z,62.27
2018-05-07T00:20:23.936Z,62.20
2018-05-07T00:22:52.396Z,62.36
2018-05-07T00:25:20.804Z,62.60
2018-05-07T00:27:49.231Z,62.67
2018-05-07T00:30:17.686Z,62.94
2018-05-07T00:32:46.105Z,62.97
2018-05-07T00:35:14.519Z,62.95
2018-05-07T00:37:42.985Z,63.09
2018-05-07T00:40:11.424Z,63.11
2018-05-07T00:42:39.861Z,63.24
2018-05-07T00:45:08.324Z,63.44
2018-05-07T00:47:36.760Z,63.51
2018-05-07T00:50:05.184Z,63.74
2018-05-07T00:52:33.676Z,63.89
2018-05-07T00:55:13.997Z,64.11
2018-05-07T00:57:42.452Z,64.09
2018-05-07T01:00:10.876Z,64.24
2018-05-07T01:02:39.289Z,64.39
2018-05-07T01:05:07.794Z,64.21
2018-05-07T01:07:36.220Z,64.41
2018-05-07T01:10:04.669Z,64.58
2018-05-07T01:12:33.148Z,64.94
2018-05-07T01:15:01.557Z,65.39
2018-05-07T01:17:29.972Z,65.54
2018-05-07T01:19:58.462Z,65.67
2018-05-07T01:22:26.897Z,65.66
2018-05-07T01:24:55.309Z,65.50
2018-05-07T01:27:23.797Z,65.42
2018-05-07T01:29:52.236Z,65.30
2018-05-07T01:32:20.652Z,65.31
2018-05-07T01:34:49.130Z,65.30
2018-05-07T01:37:17.555Z,65.50
2018-05-07T01:40:00.592Z,65.69
2018-05-07T01:42:29.040Z,66.01
2018-05-07T01:44:57.465Z,66.15
2018-05-07T01:47:25.948Z,66.68
2018-05-07T01:49:54.381Z,66.82
2018-05-07T01:52:22.814Z,66.98
2018-05-07T01:54:51.324Z,67.41
2018-05-07T01:57:19.748Z,67.35
2018-05-07T01:59:48.164Z,67.23
2018-05-07T02:02:16.654Z,67.40
2018-05-07T02:04:45.087Z,67.56
2018-05-07T02:07:13.505Z,67.55
2018-05-07T02:09:41.976Z,67.28
2018-05-07T02:12:10.387Z,67.04
2018-05-07T02:14:38.803Z,67.07
2018-05-07T02:17:07.270Z,66.93
2018-05-07T02:19:35.687Z,66.93
2018-05-07T02:22:04.143Z,67.05
2018-05-07T02:24:32.591Z,67.37
2018-05-07T02:27:01.021Z,67.40
2018-05-07T02:29:29.452Z,67.57
2018-05-07T02:31:57.908Z,67.59
2018-05-07T02:34:26.361Z,67.61
2018-05-07T02:36:54.789Z,67.92
2018-05-07T02:39:23.260Z,67.93
2018-05-07T02:41:51.688Z,68.09
2018-05-07T02:44:20.134Z,68.15
2018-05-07T02:46:48.604Z,68.25
2018-05-07T02:49:17.037Z,68.30
2018-05-07T02:51:45.459Z,68.49
2018-05-07T02:54:13.921Z,68.32
2018-05-07T02:56:42.354Z,68.51
2018-05-07T02:59:10.785Z,68.66
2018-05-07T03:01:39.256Z,68.32
2018-05-07T03:04:07.669Z,68.22
2018-05-07T03:06:36.092Z,67.95
2018-05-07T03:09:04.589Z,68.07
2018-05-07T03:11:33.009Z,68.12
2018-05-07T03:14:01.437Z,68.12
2018-05-07T03:16:30.160Z,68.14
2018-05-07T03:18:58.577Z,68.06
2018-05-07T03:21:27.000Z,68.34
2018-05-07T03:23:55.486Z,68.43
2018-05-07T03:26:23.913Z,68.49
2018-05-07T03:28:52.328Z,68.54
2018-05-07T03:31:20.789Z,68.49
2018-05-07T03:33:49.204Z,68.33
2018-05-07T03:36:17.625Z,68.53
2018-05-07T03:38:46.120Z,68.71
2018-05-07T03:41:14.547Z,68.82
2018-05-07T03:43:42.980Z,69.14
2018-05-07T03:46:11.451Z,69.30
2018-05-07T03:48:39.904Z,69.42
2018-05-07T03:51:08.337Z,69.87
2018-05-07T03:53:36.804Z,69.75
2018-05-07T03:56:05.250Z,70.26
2018-05-07T03:58:33.680Z,70.57
2018-05-07T04:01:02.204Z,70.83
2018-05-07T04:03:30.656Z,71.03
2018-05-07T04:05:59.090Z,71.14
2018-05-07T04:08:27.539Z,71.18
2018-05-07T04:10:55.954Z,71.35
2018-05-07T04:13:24.380Z,71.47
2018-05-07T04:15:52.860Z,71.50
2018-05-07T04:21:27.136Z,71.14
2018-05-07T04:24:05.476Z,71.13
2018-05-07T04:26:33.927Z,71.01
2018-05-07T04:29:02.364Z,70.66
2018-05-07T04:31:30.781Z,70.30
2018-05-07T04:33:59.241Z,70.13
2018-05-07T04:36:27.682Z,69.79
2018-05-07T04:38:56.116Z,69.67
2018-05-07T04:41:24.576Z,69.64
2018-05-07T04:43:53.000Z,69.33
2018-05-07T04:46:21.413Z,69.35
2018-05-07T04:48:49.876Z,69.18
2018-05-07T04:51:18.299Z,69.19
2018-05-07T04:53:47.000Z,69.01
2018-05-07T04:56:15.465Z,68.71
2018-05-07T04:58:43.927Z,69.04
2018-05-07T05:01:12.397Z,69.38
2018-05-07T05:03:40.864Z,69.38
2018-05-07T05:06:09.284Z,69.29
2018-05-07T05:08:37.698Z,69.40
2018-05-07T05:11:06.149Z,69.36
2018-05-07T05:13:34.565Z,69.22
2018-05-07T05:16:02.988Z,68.75
2018-05-07T05:18:31.466Z,68.43
2018-05-07T05:20:59.890Z,68.38
2018-05-07T05:23:28.311Z,67.48
2018-05-07T05:25:56.792Z,67.34
2018-05-07T05:28:25.206Z,67.51
2018-05-07T05:30:53.641Z,67.33
2018-05-07T05:33:22.104Z,67.00
2018-05-07T05:35:50.525Z,66.51
2018-05-07T05:38:18.957Z,66.78
2018-05-07T05:40:47.436Z,66.43
2018-05-07T05:43:15.848Z,66.96
2018-05-07T05:45:44.261Z,66.48
2018-05-07T05:48:12.744Z,66.28
2018-05-07T05:50:41.166Z,66.27
2018-05-07T05:53:09.586Z,66.21
2018-05-07T05:55:38.071Z,65.51
2018-05-07T05:58:06.494Z,64.65
2018-05-07T06:00:34.920Z,64.04
2018-05-07T06:03:03.402Z,64.18
2018-05-07T06:05:31.861Z,64.08
2018-05-07T06:08:00.292Z,63.94
2018-05-07T06:10:28.796Z,64.17
2018-05-07T06:12:57.227Z,62.41
2018-05-07T06:15:25.657Z,62.98
2018-05-07T06:17:54.115Z,62.70
2018-05-07T06:20:22.534Z,62.34
2018-05-07T06:22:50.969Z,62.00
2018-05-07T06:25:19.453Z,61.52
2018-05-07T06:27:47.868Z,61.80
2018-05-07T06:30:16.291Z,61.22
2018-05-07T06:32:44.774Z,60.89
2018-05-07T06:35:13.188Z,60.80
2018-05-07T06:37:41.604Z,60.35
2018-05-07T06:40:10.091Z,58.93
2018-05-07T06:42:38.552Z,59.43
2018-05-07T06:45:07.020Z,58.96
2018-05-07T06:47:51.484Z,59.00
2018-05-07T06:50:19.915Z,59.06
2018-05-07T06:52:48.329Z,59.47
2018-05-07T06:55:16.791Z,58.48
2018-05-07T06:57:45.208Z,58.43
2018-05-07T07:00:13.674Z,57.89
2018-05-07T07:02:42.263Z,56.91
2018-05-07T07:05:10.608Z,56.83
2018-05-07T07:07:39.029Z,56.76
2018-05-07T07:10:07.506Z,55.81
2018-05-07T07:12:35.926Z,55.20
2018-05-07T07:15:04.393Z,55.47
2018-05-07T07:17:32.859Z,55.24
2018-05-07T07:20:01.278Z,55.91
2018-05-07T07:22:29.693Z,54.53
2018-05-07T07:24:58.187Z,54.19
2018-05-07T07:27:26.605Z,54.08
2018-05-07T07:29:55.025Z,54.51
2018-05-07T07:32:23.504Z,53.41
2018-05-07T07:34:51.920Z,53.78
2018-05-07T07:37:20.337Z,53.48
2018-05-07T07:39:48.788Z,52.43
2018-05-07T07:42:17.257Z,52.34
2018-05-07T07:44:45.671Z,52.57
2018-05-07T07:47:14.193Z,51.65
2018-05-07T07:49:42.600Z,51.81
2018-05-07T07:52:11.017Z,52.02
2018-05-07T07:54:39.473Z,51.66
2018-05-07T07:57:07.904Z,51.67
2018-05-07T07:59:36.325Z,50.96
2018-05-07T08:02:04.826Z,51.15
2018-05-07T08:04:33.258Z,50.36
2018-05-07T08:07:01.681Z,51.45
2018-05-07T08:09:30.164Z,50.63
2018-05-07T08:11:58.681Z,49.95
2018-05-07T08:14:27.061Z,49.44
2018-05-07T08:16:55.560Z,49.57
2018-05-07T08:19:23.976Z,50.80
2018-05-07T08:21:52.400Z,49.00
2018-05-07T08:24:20.876Z,49.20
2018-05-07T08:26:49.316Z,48.61
2018-05-07T08:29:17.768Z,47.60
2018-05-07T08:31:46.244Z,47.25
2018-05-07T08:34:14.685Z,46.58
2018-05-07T08:36:43.171Z,46.71
2018-05-07T08:39:11.588Z,47.00
2018-05-07T08:41:40.413Z,48.09
2018-05-07T08:44:08.832Z,46.83
2018-05-07T08:46:37.310Z,47.40
2018-05-07T08:49:05.741Z,46.20
2018-05-07T08:51:34.159Z,46.59
2018-05-07T08:54:02.630Z,46.61
2018-05-07T08:56:31.075Z,46.21
2018-05-07T08:58:59.510Z,45.86
2018-05-07T09:01:27.978Z,45.26
2018-05-07T09:03:56.397Z,44.84
2018-05-07T09:06:24.852Z,46.39
2018-05-07T09:08:53.318Z,44.43
2018-05-07T09:11:21.756Z,44.41
2018-05-07T09:13:50.172Z,45.67
2018-05-07T09:16:18.624Z,43.89
2018-05-07T09:18:47.069Z,42.91
2018-05-07T09:21:15.485Z,41.61
2018-05-07T09:23:43.988Z,43.07
2018-05-07T09:26:12.428Z,41.98
2018-05-07T09:28:40.855Z,41.79
2018-05-07T09:31:09.307Z,41.33
2018-05-07T09:33:37.735Z,41.92
2018-05-07T09:36:06.153Z,41.35
2018-05-07T09:38:34.612Z,42.51
2018-05-07T09:41:03.038Z,41.29
2018-05-07T09:43:31.464Z,42.23
2018-05-07T09:46:00.057Z,42.11
2018-05-07T09:48:28.484Z,41.45
2018-05-07T09:50:56.904Z,41.89
2018-05-07T09:53:25.370Z,39.93
2018-05-07T09:55:53.785Z,41.86
2018-05-07T09:58:22.205Z,40.10
2018-05-07T10:00:50.683Z,40.05
2018-05-07T10:03:19.112Z,40.37
2018-05-07T10:05:47.533Z,40.16
2018-05-07T10:08:15.991Z,40.13
2018-05-07T10:10:44.453Z,39.54
2018-05-07T10:13:12.868Z,40.40
2018-05-07T10:15:41.321Z,40.99
2018-05-07T10:18:09.741Z,39.88
2018-05-07T10:20:38.152Z,39.53
2018-05-07T10:23:06.612Z,40.78
2018-05-07T10:25:35.031Z,40.72
2018-05-07T10:28:03.461Z,38.92
2018-05-07T10:30:31.912Z,39.80
2018-05-07T10:33:00.336Z,39.12
2018-05-07T10:35:28.764Z,39.26
2018-05-07T10:37:57.229Z,39.66
2018-05-07T10:40:25.639Z,39.77
2018-05-07T10:42:54.057Z,38.76
2018-05-07T10:45:22.604Z,38.56
2018-05-07T10:47:50.980Z,39.72
2018-05-07T10:50:19.413Z,40.07
2018-05-07T10:52:47.906Z,40.43
2018-05-07T10:55:16.340Z,38.77
2018-05-07T10:57:44.760Z,39.43
2018-05-07T11:00:13.239Z,38.24
2018-05-07T11:02:41.649Z,39.34
2018-05-07T11:05:10.063Z,39.90
2018-05-07T11:07:38.523Z,39.24
2018-05-07T11:10:06.956Z,38.10
2018-05-07T11:12:35.367Z,38.71
2018-05-07T11:15:03.864Z,39.09
2018-05-07T11:17:32.296Z,39.35
2018-05-07T11:20:00.727Z,38.95
2018-05-07T11:22:29.203Z,38.89
2018-05-07T11:24:57.607Z,38.73
2018-05-07T11:27:26.014Z,37.83
2018-05-07T11:29:54.504Z,37.54
2018-05-07T11:32:22.944Z,37.40
2018-05-07T11:34:51.372Z,37.63
2018-05-07T11:37:19.837Z,38.83
2018-05-07T11:39:48.261Z,37.01
2018-05-07T11:42:16.669Z,37.63
2018-05-07T11:44:45.124Z,37.10
2018-05-07T11:47:13.555Z,37.28
2018-05-07T11:49:41.972Z,36.91
2018-05-07T11:52:10.441Z,37.06
2018-05-07T11:54:38.864Z,36.38
2018-05-07T11:57:07.293Z,36.60
2018-05-07T11:59:35.777Z,34.64
2018-05-07T12:02:04.195Z,35.00
2018-05-07T12:04:32.611Z,37.06
2018-05-07T12:07:01.105Z,37.83
2018-05-07T12:09:29.532Z,35.46
2018-05-07T12:11:57.970Z,35.80
2018-05-07T12:14:26.440Z,35.07
2018-05-07T12:16:54.856Z,35.52
2018-05-07T12:19:23.272Z,35.63
2018-05-07T12:21:51.770Z,35.40
2018-05-07T12:24:20.196Z,34.78
2018-05-07T12:26:48.629Z,35.28
2018-05-07T12:29:17.084Z,37.41
2018-05-07T12:31:45.588Z,36.19
2018-05-07T12:34:13.982Z,37.84
2018-05-07T12:36:42.499Z,35.98
2018-05-07T12:39:10.922Z,35.53
2018-05-07T12:41:39.352Z,35.06
2018-05-07T12:44:07.816Z,34.78
2018-05-07T12:46:36.244Z,35.95
2018-05-07T12:49:04.672Z,35.58
2018-05-07T12:51:33.140Z,35.38
2018-05-07T12:54:01.555Z,36.23
2018-05-07T12:56:29.982Z,35.82
2018-05-07T12:58:58.486Z,35.78
2018-05-07T13:01:27.149Z,36.06
2018-05-07T13:03:55.568Z,34.52
2018-05-07T13:06:24.033Z,34.84
2018-05-07T13:08:52.457Z,35.15
2018-05-07T13:11:20.899Z,35.59
2018-05-07T13:13:49.372Z,34.29
2018-05-07T13:16:17.783Z,34.79
2018-05-07T13:18:46.208Z,34.52
2018-05-07T13:21:14.694Z,34.45
2018-05-07T13:23:43.148Z,35.17
2018-05-07T13:26:11.563Z,33.32
2018-05-07T13:28:40.016Z,33.65
2018-05-07T13:31:08.445Z,34.22
2018-05-07T13:33:36.865Z,33.00
2018-05-07T13:36:05.396Z,33.53
2018-05-07T13:38:33.843Z,33.64
2018-05-07T13:41:02.264Z,33.27
2018-05-07T13:43:30.741Z,33.39
2018-05-07T13:45:59.182Z,33.02
2018-05-07T13:48:27.603Z,32.54
2018-05-07T13:50:56.069Z,32.52
2018-05-07T13:53:24.484Z,32.47
2018-05-07T13:55:52.927Z,33.23
2018-05-07T13:58:21.408Z,31.73
2018-05-07T14:00:49.835Z,32.33
2018-05-07T14:03:18.601Z,32.49
2018-05-07T14:05:47.076Z,33.34
2018-05-07T14:08:15.517Z,32.86
2018-05-07T14:10:43.932Z,31.98
2018-05-07T14:13:12.401Z,31.73
2018-05-07T14:15:41.012Z,32.96
2018-05-07T14:18:09.428Z,32.29
2018-05-07T14:20:37.912Z,32.92
2018-05-07T14:23:06.332Z,32.97
2018-05-07T14:25:34.757Z,33.78
2018-05-07T14:28:03.247Z,34.26
2018-05-07T14:30:31.660Z,32.99
2018-05-07T14:33:00.080Z,33.32
2018-05-07T14:35:28.549Z,33.13
2018-05-07T14:37:56.977Z,32.76
2018-05-07T14:40:25.400Z,33.07
2018-05-07T14:42:53.881Z,33.41
2018-05-07T14:45:22.341Z,34.40
2018-05-07T14:47:50.765Z,34.14
2018-05-07T14:50:19.243Z,35.48
2018-05-07T14:52:47.727Z,34.64
2018-05-07T14:55:16.169Z,34.08
2018-05-07T14:57:44.636Z,33.39
2018-05-07T15:00:13.079Z,34.08
2018-05-07T15:02:41.512Z,34.52
2018-05-07T15:05:10.011Z,35.00
2018-05-07T15:07:38.433Z,34.17
2018-05-07T15:10:06.857Z,34.45
2018-05-07T15:12:35.332Z,34.70
2018-05-07T15:15:03.812Z,34.89
2018-05-07T15:17:32.247Z,34.87
2018-05-07T15:20:00.705Z,36.09
2018-05-07T15:22:29.141Z,35.29
2018-05-07T15:24:57.572Z,36.34
2018-05-07T15:27:26.020Z,37.27
2018-05-07T15:29:54.465Z,37.26
2018-05-07T15:32:22.888Z,35.44
2018-05-07T15:34:51.354Z,35.62
2018-05-07T15:37:19.781Z,36.13
2018-05-07T15:39:48.192Z,36.55
2018-05-07T15:42:16.653Z,36.67
2018-05-07T15:44:45.064Z,36.45
2018-05-07T15:47:13.500Z,36.56
2018-05-07T15:49:41.953Z,36.65
2018-05-07T15:52:10.366Z,36.24
2018-05-07T15:54:38.830Z,36.58
2018-05-07T15:57:07.322Z,36.86
2018-05-07T15:59:35.742Z,37.13
2018-05-07T16:02:04.665Z,36.68
2018-05-07T16:04:33.135Z,36.72
2018-05-07T16:07:01.706Z,36.50
2018-05-07T16:09:30.117Z,37.10
2018-05-07T16:11:58.602Z,36.73
2018-05-07T16:14:27.024Z,36.61
2018-05-07T16:16:55.470Z,36.05
2018-05-07T16:19:23.925Z,36.98
2018-05-07T16:21:52.386Z,36.63
2018-05-07T16:24:20.799Z,36.19
2018-05-07T16:26:49.280Z,36.00
2018-05-07T16:29:17.692Z,35.79
2018-05-07T16:31:46.127Z,36.46
2018-05-07T16:34:14.580Z,37.59
2018-05-07T16:36:43.024Z,37.93
2018-05-07T16:39:11.435Z,37.82
2018-05-07T16:41:39.915Z,37.98
2018-05-07T16:44:08.325Z,37.81
2018-05-07T16:46:36.752Z,38.81
2018-05-07T16:49:05.299Z,38.66
2018-05-07T16:51:33.716Z,39.02
2018-05-07T16:54:02.141Z,38.32
2018-05-07T16:56:30.606Z,37.66
2018-05-07T16:58:59.032Z,38.20
2018-05-07T17:01:27.457Z,36.83
2018-05-07T17:03:55.913Z,38.21
2018-05-07T17:06:24.330Z,37.90
2018-05-07T17:08:52.746Z,38.46
2018-05-07T17:11:21.205Z,38.54
2018-05-07T17:13:49.625Z,39.15
2018-05-07T17:16:18.053Z,39.50
2018-05-07T17:18:46.525Z,39.34
2018-05-07T17:21:14.949Z,38.94
2018-05-07T17:23:43.368Z,39.44
2018-05-07T17:26:11.837Z,39.97
2018-05-07T17:28:40.280Z,39.89
2018-05-07T17:31:08.692Z,40.34
2018-05-07T17:33:37.194Z,39.21
2018-05-07T17:36:05.625Z,39.60
2018-05-07T17:38:34.045Z,39.79
2018-05-07T17:41:02.512Z,39.45
2018-05-07T17:43:30.932Z,39.76
2018-05-07T17:46:11.382Z,40.38
2018-05-07T17:48:51.416Z,41.02
2018-05-07T17:51:19.873Z,41.59
2018-05-07T17:53:48.297Z,42.07
2018-05-07T17:56:16.716Z,42.45
2018-05-07T17:58:45.213Z,42.57
2018-05-07T18:01:13.640Z,42.64
2018-05-07T18:03:42.073Z,42.72
2018-05-07T18:06:10.590Z,42.54
2018-05-07T18:08:39.022Z,42.58
2018-05-07T18:11:07.476Z,42.52
2018-05-07T18:13:35.947Z,42.19
2018-05-07T18:16:04.380Z,42.26
2018-05-07T18:18:32.793Z,42.27
2018-05-07T18:21:01.270Z,42.35
2018-05-07T18:23:29.693Z,41.96
2018-05-07T18:25:58.105Z,42.26
2018-05-07T18:28:26.564Z,42.06
2018-05-07T18:30:55.000Z,42.13
2018-05-07T18:33:23.430Z,41.86
2018-05-07T18:35:52.244Z,42.06
2018-05-07T18:38:20.764Z,42.08
2018-05-07T18:40:49.289Z,41.98
2018-05-07T18:43:17.796Z,41.87
2018-05-07T18:45:46.274Z,41.89
2018-05-07T18:48:14.722Z,41.97
2018-05-07T18:50:43.273Z,42.07
2018-05-07T18:53:11.755Z,42.31
2018-05-07T18:55:40.192Z,42.88
2018-05-07T18:58:08.659Z,43.85
2018-05-07T19:00:37.183Z,44.34
2018-05-07T19:03:05.683Z,44.96
2018-05-07T19:05:34.148Z,45.37
2018-05-07T19:08:02.590Z,45.63
2018-05-07T19:10:31.009Z,46.13
2018-05-07T19:12:59.476Z,46.21
2018-05-07T19:15:27.904Z,45.74
2018-05-07T19:17:56.335Z,46.30
2018-05-07T19:20:24.838Z,45.67
2018-05-07T19:22:53.260Z,45.24
2018-05-07T19:25:21.694Z,45.41
2018-05-07T19:27:50.165Z,45.44
2018-05-07T19:30:18.589Z,45.99
2018-05-07T19:32:47.005Z,45.31
2018-05-07T19:35:15.461Z,46.02
2018-05-07T19:37:43.900Z,46.83
2018-05-07T19:40:12.329Z,47.41
2018-05-07T19:42:40.779Z,47.48
2018-05-07T19:45:09.204Z,47.90
2018-05-07T19:47:37.616Z,48.08
2018-05-07T19:50:06.082Z,48.09
2018-05-07T19:52:34.496Z,48.51
2018-05-07T19:55:02.914Z,48.51
2018-05-07T19:57:31.380Z,48.54
2018-05-07T19:59:59.788Z,48.52
2018-05-07T20:02:28.210Z,48.12
2018-05-07T20:04:56.673Z,48.29
2018-05-07T20:07:25.099Z,47.08
2018-05-07T20:09:53.524Z,47.70
2018-05-07T20:12:22.051Z,48.07
2018-05-07T20:14:50.445Z,48.15
2018-05-07T20:17:18.865Z,48.09
2018-05-07T20:19:47.330Z,47.97
2018-05-07T20:22:15.853Z,49.22
2018-05-07T20:24:44.285Z,50.22
2018-05-07T20:27:12.750Z,50.66
2018-05-07T20:29:42.013Z,51.51
2018-05-07T20:32:10.435Z,52.07
2018-05-07T20:34:38.905Z,52.35
2018-05-07T20:37:07.397Z,52.75
2018-05-07T20:39:35.833Z,53.01
2018-05-07T20:42:04.331Z,53.39
2018-05-07T20:44:32.762Z,53.69
2018-05-07T20:47:01.207Z,53.95
2018-05-07T20:49:29.678Z,54.23
2018-05-07T20:51:58.114Z,54.44
2018-05-07T20:54:26.585Z,54.59
2018-05-07T20:56:55.053Z,54.64
2018-05-07T20:59:23.553Z,54.71
2018-05-07T21:01:51.956Z,54.84
2018-05-07T21:04:20.420Z,55.02
2018-05-07T21:06:48.849Z,55.20
2018-05-07T21:09:17.274Z,55.05
2018-05-07T21:11:45.740Z,55.16
2018-05-07T21:14:14.161Z,55.22
2018-05-07T21:16:42.594Z,55.26
2018-05-07T21:19:11.079Z,55.25
2018-05-07T21:21:39.493Z,55.01
2018-05-07T21:24:07.901Z,55.24
2018-05-07T21:26:36.381Z,55.18
2018-05-07T21:29:04.800Z,55.54
2018-05-07T21:31:33.224Z,56.24
2018-05-07T21:34:01.706Z,56.19
2018-05-07T21:36:30.120Z,56.95
2018-05-07T21:38:58.535Z,56.69
2018-05-07T21:41:27.024Z,57.18
2018-05-07T21:43:55.445Z,57.29
2018-05-07T21:46:23.874Z,57.14
2018-05-07T21:48:52.335Z,57.66
2018-05-07T21:51:20.760Z,57.59
2018-05-07T21:53:49.177Z,57.52
2018-05-07T21:56:17.652Z,57.56
2018-05-07T21:58:46.065Z,57.83
2018-05-07T22:01:14.492Z,58.07
2018-05-07T22:03:43.014Z,58.21
2018-05-07T22:06:11.440Z,58.32
2018-05-07T22:08:39.874Z,59.60
2018-05-07T22:11:08.341Z,58.87
2018-05-07T22:13:36.760Z,58.93
2018-05-07T22:16:05.192Z,59.24
2018-05-07T22:18:33.840Z,59.06
2018-05-07T22:21:02.266Z,59.29
2018-05-07T22:23:30.677Z,59.50
2018-05-07T22:25:59.152Z,60.35
2018-05-07T22:28:27.575Z,60.01
2018-05-07T22:30:55.990Z,60.33
2018-05-07T22:33:24.464Z,60.61
2018-05-07T22:35:52.886Z,60.75
2018-05-07T22:38:21.315Z,60.92
2018-05-07T22:40:49.777Z,61.20
2018-05-07T22:43:18.211Z,61.33
2018-05-07T22:45:46.636Z,62.00
2018-05-07T22:48:15.107Z,61.78
2018-05-07T22:50:43.524Z,61.93
2018-05-07T22:53:11.976Z,61.93
2018-05-07T22:55:40.457Z,62.17
2018-05-07T22:58:08.882Z,62.03
2018-05-07T23:00:37.343Z,62.46
2018-05-07T23:03:05.813Z,62.72
2018-05-07T23:05:34.232Z,62.83
2018-05-07T23:08:02.687Z,63.03
2018-05-07T23:10:31.164Z,62.99
2018-05-07T23:12:59.584Z,62.76
2018-05-07T23:15:28.015Z,62.74
2018-05-07T23:17:56.481Z,62.69
2018-05-07T23:20:24.912Z,62.84
2018-05-07T23:22:53.336Z,62.81
2018-05-07T23:25:21.849Z,62.78
2018-05-07T23:27:50.268Z,62.88
2018-05-07T23:30:18.692Z,62.78
2018-05-07T23:32:47.176Z,62.94
2018-05-07T23:35:15.595Z,62.92
2018-05-07T23:37:44.025Z,63.17
2018-05-07T23:40:12.492Z,63.17
2018-05-07T23:42:40.920Z,63.29
2018-05-07T23:45:09.343Z,63.31
2018-05-07T23:47:37.831Z,63.54
2018-05-07T23:50:06.251Z,63.52
2018-05-07T23:52:34.675Z,63.57
2018-05-07T23:55:03.245Z,63.42
2018-05-07T23:57:31.669Z,63.62
